Estación de Galvarino
Ultimos registro cada 15 minutos 92
| N° | Estación | Fecha / Hora | Temperatura | Humedad | Lluvia | Velocidad | Dirección | Radiación | Presion |
| 92 | Galvarino | 01-09-2026 22:45 | 11,2 | 86,2 | 0 | 0 | 119 | 0,6 | 992,5 |
| 91 | Galvarino | 01-09-2026 22:30 | 11,1 | 87,9 | 0 | 0 | 132 | 0,6 | 992 |
| 90 | Galvarino | 01-09-2026 22:15 | 11,4 | 86,6 | 0 | 0,5 | 145 | 0,6 | 992,2 |
| 89 | Galvarino | 01-09-2026 22:00 | 11,6 | 84,7 | 0 | 0,5 | 156 | 0,6 | 992,2 |
| 88 | Galvarino | 01-09-2026 21:45 | 11,5 | 88 | 0 | 1 | 161 | 0,6 | 992,1 |
| 87 | Galvarino | 01-09-2026 21:30 | 11,6 | 87,7 | 0 | 1,5 | 161 | 0,6 | 991,9 |
| 86 | Galvarino | 01-09-2026 21:15 | 11,7 | 86,6 | 0 | 2,5 | 168 | 0,6 | 992,2 |
| 85 | Galvarino | 01-09-2026 21:00 | 11,8 | 84,6 | 0 | 3 | 175 | 0,6 | 992,1 |
| 84 | Galvarino | 01-09-2026 20:45 | 12,2 | 82,3 | 0 | 3,5 | 167 | 0,6 | 992 |
| 83 | Galvarino | 01-09-2026 20:30 | 12,2 | 82 | 0,2 | 2 | 152 | 0,6 | 992,6 |
| 82 | Galvarino | 01-09-2026 20:15 | 12,4 | 82,9 | 0 | 0,5 | 152 | 0,6 | 993,2 |
| 81 | Galvarino | 01-09-2026 20:00 | 11,9 | 89,2 | 0 | 0 | 121 | 0,6 | 993,3 |
| 80 | Galvarino | 01-09-2026 19:45 | 12 | 88,6 | 0 | 0 | 118 | 0,6 | 993,5 |
| 79 | Galvarino | 01-09-2026 19:30 | 12,5 | 84,2 | 0 | 0 | 124 | 0,6 | 993,4 |
| 78 | Galvarino | 01-09-2026 19:15 | 12,7 | 82,9 | 0 | 0,5 | 115 | 0,6 | 993,1 |
| 77 | Galvarino | 01-09-2026 19:00 | 13 | 82,5 | 0 | 0,5 | 121 | 0,6 | 993,1 |
| 76 | Galvarino | 01-09-2026 18:45 | 13,2 | 82,8 | 0 | 0 | 121 | 0,6 | 993 |
| 75 | Galvarino | 01-09-2026 18:30 | 13,4 | 81,1 | 0 | 0,5 | 115 | 0,6 | 992,9 |
| 74 | Galvarino | 01-09-2026 18:15 | 13,5 | 81,4 | 0 | 0 | 118 | 0,6 | 993 |
| 73 | Galvarino | 01-09-2026 18:00 | 13,5 | 81,2 | 0 | 0,5 | 119 | 4,4 | 993 |
| 72 | Galvarino | 01-09-2026 17:45 | 13,7 | 81,2 | 0 | 0 | 121 | 20,6 | 992,8 |
| 71 | Galvarino | 01-09-2026 17:30 | 14 | 78,8 | 0 | 0,5 | 128 | 6,9 | 993,1 |
| 70 | Galvarino | 01-09-2026 17:15 | 14,3 | 76,3 | 0 | 1,5 | 146 | 14,4 | 992,9 |
| 69 | Galvarino | 01-09-2026 17:00 | 14,6 | 74,7 | 0 | 1,5 | 160 | 41,9 | 992,6 |
| 68 | Galvarino | 01-09-2026 16:45 | 14,7 | 75,3 | 0 | 1 | 163 | 79,4 | 992,6 |
| 67 | Galvarino | 01-09-2026 16:30 | 14,7 | 74,3 | 0 | 1,5 | 163 | 76,9 | 992,6 |
| 66 | Galvarino | 01-09-2026 16:15 | 14,8 | 74 | 0 | 2 | 166 | 161,9 | 992,5 |
| 65 | Galvarino | 01-09-2026 16:00 | 14,8 | 72,5 | 0 | 1,5 | 163 | 46,9 | 992,8 |
| 64 | Galvarino | 01-09-2026 15:45 | 14,9 | 72,8 | 0 | 2 | 147 | 31,9 | 993,1 |
| 63 | Galvarino | 01-09-2026 15:30 | 15,2 | 72,3 | 0 | 2 | 143 | 38,1 | 993,3 |
| 62 | Galvarino | 01-09-2026 15:15 | 15,7 | 68,9 | 0 | 1 | 145 | 94,4 | 993 |
| 61 | Galvarino | 01-09-2026 15:00 | 15,8 | 67,6 | 0 | 1,5 | 160 | 129,4 | 993,2 |
| 60 | Galvarino | 01-09-2026 14:45 | 15,7 | 68 | 0 | 1,5 | 159 | 271,9 | 993 |
| 59 | Galvarino | 01-09-2026 14:30 | 15,3 | 71 | 0 | 0,5 | 152 | 115,6 | 993,4 |
| 58 | Galvarino | 01-09-2026 14:15 | 15,1 | 71,1 | 0 | 1 | 156 | 109,4 | 993,8 |
| 57 | Galvarino | 01-09-2026 14:00 | 15,4 | 69,2 | 0 | 1 | 166 | 271,9 | 993,8 |
| 56 | Galvarino | 01-09-2026 13:45 | 15 | 70,7 | 0 | 1,5 | 168 | 226,9 | 994,1 |
| 55 | Galvarino | 01-09-2026 13:30 | 15,1 | 69,9 | 0 | 1,5 | 166 | 196,9 | 994,2 |
| 54 | Galvarino | 01-09-2026 13:15 | 15,1 | 71,5 | 0 | 1 | 163 | 201,9 | 994,3 |
| 53 | Galvarino | 01-09-2026 13:00 | 15,2 | 69,9 | 0 | 2 | 160 | 265,6 | 994,6 |
| 52 | Galvarino | 01-09-2026 12:45 | 15,5 | 68,6 | 0 | 2 | 167 | 476,9 | 994,8 |
| 51 | Galvarino | 01-09-2026 12:30 | 14,9 | 70,2 | 0 | 3 | 163 | 388,1 | 995,1 |
| 50 | Galvarino | 01-09-2026 12:15 | 15,1 | 72,7 | 0 | 2,5 | 164 | 463,1 | 995,3 |
| 49 | Galvarino | 01-09-2026 12:00 | 14,3 | 77,4 | 0 | 1,5 | 174 | 343,1 | 995,4 |
| 48 | Galvarino | 01-09-2026 11:45 | 14,6 | 75,9 | 0 | 2,5 | 166 | 373,1 | 995,6 |
| 47 | Galvarino | 01-09-2026 11:30 | 14,4 | 79,6 | 0 | 1 | 161 | 484,4 | 995,5 |
| 46 | Galvarino | 01-09-2026 11:15 | 13,5 | 83,4 | 0 | 2 | 171 | 488,1 | 995,7 |
| 45 | Galvarino | 01-09-2026 11:00 | 12,6 | 85,3 | 0 | 2 | 174 | 349,4 | 995,7 |
| 44 | Galvarino | 01-09-2026 10:45 | 12,1 | 86,8 | 0 | 1,5 | 175 | 274,4 | 996 |
| 43 | Galvarino | 01-09-2026 10:30 | 11,7 | 86,9 | 0 | 1,5 | 168 | 248,1 | 996 |
| 42 | Galvarino | 01-09-2026 10:15 | 11,1 | 90 | 0 | 1 | 135 | 204,4 | 996,3 |
| 41 | Galvarino | 01-09-2026 10:00 | 10,8 | 91,1 | 0 | 0,5 | 174 | 145,6 | 996,7 |
| 40 | Galvarino | 01-09-2026 09:45 | 10,5 | 92,1 | 0 | 0 | 177 | 115,6 | 996,6 |
| 39 | Galvarino | 01-09-2026 09:30 | 10,1 | 92,8 | 0 | 0 | 180 | 101,9 | 996,5 |
| 38 | Galvarino | 01-09-2026 09:15 | 10 | 92,9 | 0 | 1 | 178 | 86,9 | 996,4 |
| 37 | Galvarino | 01-09-2026 09:00 | 9,8 | 93,2 | 0 | 0,5 | 177 | 71,9 | 996,4 |
| 36 | Galvarino | 01-09-2026 08:45 | 9,8 | 93 | 0 | 0,5 | 171 | 59,4 | 996,5 |
| 35 | Galvarino | 01-09-2026 08:30 | 9,8 | 92,9 | 0 | 0,5 | 178 | 56,9 | 996,4 |
| 34 | Galvarino | 01-09-2026 08:15 | 9,7 | 92,9 | 0 | 1,5 | 171 | 51,9 | 996,3 |
| 33 | Galvarino | 01-09-2026 08:00 | 9,7 | 93,1 | 0 | 1 | 170 | 46,9 | 996,2 |
| 32 | Galvarino | 01-09-2026 07:45 | 9,4 | 93,7 | 0 | 0,5 | 166 | 41,9 | 996,2 |
| 31 | Galvarino | 01-09-2026 07:30 | 9,3 | 93,9 | 0 | 0,5 | 139 | 19,4 | 996,4 |
| 30 | Galvarino | 01-09-2026 07:15 | 9,1 | 94,6 | 0 | 0,5 | 138 | 1,9 | 996 |
| 29 | Galvarino | 01-09-2026 07:00 | 9,1 | 94,4 | 0 | 1 | 159 | 0,6 | 995,8 |
| 28 | Galvarino | 01-09-2026 06:45 | 9,4 | 93,9 | 0 | 1,5 | 164 | 0,6 | 995,7 |
| 27 | Galvarino | 01-09-2026 06:30 | 9,4 | 94,5 | 0 | 1,5 | 170 | 0,6 | 995,8 |
| 26 | Galvarino | 01-09-2026 06:15 | 9,4 | 94,5 | 0 | 2 | 174 | 0,6 | 995,7 |
| 25 | Galvarino | 01-09-2026 06:00 | 9,5 | 94,1 | 0 | 2 | 171 | 0,6 | 995,5 |
| 24 | Galvarino | 01-09-2026 05:45 | 9,8 | 93,1 | 0 | 1,5 | 168 | 0,6 | 995,7 |
| 23 | Galvarino | 01-09-2026 05:30 | 9,8 | 92,8 | 0 | 0,5 | 164 | 0,6 | 995,9 |
| 22 | Galvarino | 01-09-2026 05:15 | 9,9 | 92,4 | 0 | 1 | 159 | 0,6 | 995,7 |
| 21 | Galvarino | 01-09-2026 05:00 | 10 | 92,4 | 0 | 0,5 | 140 | 0,6 | 995,8 |
| 20 | Galvarino | 01-09-2026 04:45 | 10 | 92,9 | 0 | 1,5 | 161 | 0,6 | 995,7 |
| 19 | Galvarino | 01-09-2026 04:30 | 9,9 | 93,8 | 0 | 0,5 | 160 | 0,6 | 995,7 |
| 18 | Galvarino | 01-09-2026 04:15 | 9,7 | 94,7 | 0 | 0,5 | 161 | 0,6 | 995,7 |
| 17 | Galvarino | 01-09-2026 04:00 | 9,5 | 95,8 | 0 | 0 | 167 | 0,6 | 995,6 |
| 16 | Galvarino | 01-09-2026 03:45 | 9,4 | 96,2 | 0 | 0 | 167 | 0,6 | 995,7 |
| 15 | Galvarino | 01-09-2026 03:30 | 9,6 | 95,7 | 0 | 0 | 166 | 0,6 | 995,7 |
| 14 | Galvarino | 01-09-2026 03:15 | 9,6 | 95,7 | 0 | 0 | 164 | 0,6 | 996,2 |
| 13 | Galvarino | 01-09-2026 03:00 | 9,4 | 95,9 | 0 | 0 | 164 | 0,6 | 996,4 |
| 12 | Galvarino | 01-09-2026 02:45 | 9,7 | 95,2 | 0 | 1 | 166 | 0,6 | 996,3 |
| 11 | Galvarino | 01-09-2026 02:30 | 9,8 | 95,4 | 0 | 1 | 260 | 0,6 | 996,3 |
| 10 | Galvarino | 01-09-2026 02:15 | 9,5 | 96,9 | 0 | 0 | 344 | 0,6 | 996,3 |
| 9 | Galvarino | 01-09-2026 02:00 | 9 | 97,2 | 0 | 0 | 345 | 0,6 | 996,6 |
| 8 | Galvarino | 01-09-2026 01:45 | 8,9 | 97 | 0 | 0 | 345 | 0,6 | 996,9 |
| 7 | Galvarino | 01-09-2026 01:30 | 8,7 | 96,2 | 0 | 0 | 345 | 0,6 | 997 |
| 6 | Galvarino | 01-09-2026 01:15 | 8,9 | 95,9 | 0 | 0 | 345 | 0,6 | 996,9 |
| 5 | Galvarino | 01-09-2026 01:00 | 8,8 | 95,4 | 0 | 0 | 347 | 0,6 | 997,4 |
| 4 | Galvarino | 01-09-2026 00:45 | 8,7 | 95,3 | 0 | 0 | 347 | 0,6 | 997,3 |
| 3 | Galvarino | 01-09-2026 00:30 | 8,7 | 95,3 | 0 | 0 | 347 | 0,6 | 997,6 |
| 2 | Galvarino | 01-09-2026 00:15 | 8,7 | 95,4 | 0 | 0 | 347 | 0,6 | 997,8 |
| 1 | Galvarino | 01-09-2026 00:00 | 8,8 | 95,5 | 0 | 0 | 347 | 0,6 | 997,8 |